Time;durP1;ratioP1;P1;durP2;ratioP2;P2;SDS_P1;SDS_P2;PMS_P1;PMS_P2;Temp;Humidity;BMP_temperature;BMP_pressure;BME280_temperature;BME280_humidity;BME280_pressure;Samples;Min_cycle;Max_cycle;Signal;HPM_P1;HPM_P2
2022/10/10 00:00:43;;;;;;;13.13;6.88;;;11.20;97.20;;;;;;5030817;28;20033;-64
2022/10/10 00:03:09;;;;;;;10.57;7.35;;;11.20;97.30;;;;;;5028570;28;20029;-65
2022/10/10 00:05:36;;;;;;;13.60;8.15;;;11.10;96.60;;;;;;5025463;28;20315;-63
2022/10/10 00:08:02;;;;;;;10.40;7.05;;;11.00;96.50;;;;;;5028161;28;20033;-64
2022/10/10 00:10:28;;;;;;;12.68;7.35;;;11.00;95.90;;;;;;5028845;28;20143;-65
2022/10/10 00:12:53;;;;;;;10.30;6.57;;;10.90;95.90;;;;;;5032382;28;20104;-65
2022/10/10 00:15:19;;;;;;;12.13;8.13;;;10.80;95.20;;;;;;5031032;28;20033;-65
2022/10/10 00:17:45;;;;;;;10.88;6.60;;;10.90;95.70;;;;;;5026318;28;20039;-64
2022/10/10 00:20:14;;;;;;;12.80;7.10;;;10.80;94.90;;;;;;5028773;28;20033;-65
2022/10/10 00:22:40;;;;;;;10.40;7.35;;;10.70;94.20;;;;;;5027942;28;20036;-65
2022/10/10 00:25:07;;;;;;;13.18;6.82;;;10.70;94.00;;;;;;5034298;28;20441;-65
2022/10/10 00:27:34;;;;;;;9.85;6.15;;;10.60;93.50;;;;;;5032073;28;20038;-65
2022/10/10 00:30:00;;;;;;;12.00;6.53;;;10.70;93.80;;;;;;5032251;28;20033;-65
2022/10/10 00:32:25;;;;;;;11.05;7.30;;;10.70;93.50;;;;;;5033833;28;20303;-65
2022/10/10 00:34:51;;;;;;;12.40;7.00;;;10.60;93.20;;;;;;5034232;28;20079;-65
2022/10/10 00:37:17;;;;;;;9.70;6.55;;;10.60;93.20;;;;;;5030704;28;20045;-64
2022/10/10 00:39:43;;;;;;;12.43;7.00;;;10.60;92.50;;;;;;5028018;28;20314;-65
2022/10/10 00:42:15;;;;;;;11.73;6.38;;;10.60;92.80;;;;;;5034131;28;20443;-65
2022/10/10 00:44:43;;;;;;;10.85;6.75;;;10.60;92.60;;;;;;5035039;28;20025;-65
2022/10/10 00:47:08;;;;;;;9.75;5.97;;;10.60;92.70;;;;;;5032354;28;20025;-65
2022/10/10 00:49:38;;;;;;;10.13;6.70;;;10.60;92.50;;;;;;5033896;28;20133;-65
2022/10/10 00:52:04;;;;;;;11.85;6.20;;;10.50;92.60;;;;;;5028856;28;20322;-65
2022/10/10 00:54:32;;;;;;;11.80;6.28;;;10.50;91.80;;;;;;5028827;28;20032;-65
2022/10/10 00:57:06;;;;;;;10.55;6.82;;;10.50;91.60;;;;;;5034015;28;20022;-65
2022/10/10 00:59:35;;;;;;;10.38;6.28;;;10.50;91.80;;;;;;5033643;28;20030;-65
2022/10/10 01:02:01;;;;;;;13.95;7.25;;;10.50;91.60;;;;;;5032172;28;20064;-65
2022/10/10 01:04:32;;;;;;;7.90;5.18;;;10.60;92.00;;;;;;5034032;28;20314;-65
2022/10/10 01:07:00;;;;;;;12.25;5.18;;;10.60;91.50;;;;;;5033163;28;20053;-65
2022/10/10 01:09:27;;;;;;;9.25;5.20;;;10.80;92.80;;;;;;5029601;28;20331;-65
2022/10/10 01:12:20;;;;;;;12.07;5.32;;;10.70;93.10;;;;;;5030717;28;20072;-65
2022/10/10 01:15:07;;;;;;;9.57;5.30;;;10.80;92.80;;;;;;5030248;28;20033;-65
2022/10/10 01:17:40;;;;;;;7.25;4.80;;;10.70;92.80;;;;;;5030128;28;20419;-65
2022/10/10 01:20:33;;;;;;;7.43;5.10;;;10.80;93.20;;;;;;5030412;28;20053;-65
2022/10/10 01:23:35;;;;;;;9.98;5.57;;;10.80;93.70;;;;;;5033742;28;20021;-65
2022/10/10 01:26:33;;;;;;;11.45;5.20;;;10.80;93.20;;;;;;5029932;28;20021;-65
2022/10/10 01:29:09;;;;;;;9.43;5.70;;;10.80;93.00;;;;;;5031074;28;20026;-65
2022/10/10 01:31:39;;;;;;;9.23;5.97;;;10.90;93.70;;;;;;5025576;28;20288;-64
2022/10/10 01:34:18;;;;;;;10.18;5.50;;;10.80;93.30;;;;;;5034293;28;20033;-65
2022/10/10 01:36:56;;;;;;;8.85;5.22;;;10.80;93.10;;;;;;5033849;28;20040;-64
2022/10/10 01:39:44;;;;;;;9.35;5.18;;;10.70;92.40;;;;;;5032155;28;20042;-65
2022/10/10 01:42:24;;;;;;;9.38;5.47;;;10.80;93.20;;;;;;5033090;28;20017;-64
2022/10/10 01:44:52;;;;;;;8.57;4.95;;;10.70;92.70;;;;;;5027380;28;20045;-64
2022/10/10 01:47:20;;;;;;;8.98;5.13;;;10.80;92.50;;;;;;5033543;28;20025;-64
2022/10/10 01:49:48;;;;;;;8.20;4.55;;;10.70;92.60;;;;;;5036294;28;20062;-64
2022/10/10 01:52:42;;;;;;;9.25;4.43;;;10.60;91.90;;;;;;5034337;28;20344;-66
2022/10/10 01:55:32;;;;;;;;;;;10.60;90.80;;;;;;5031485;28;20036;-65
2022/10/10 01:58:28;;;;;;;11.23;4.90;;;10.70;91.80;;;;;;5033601;28;19916;-65
2022/10/10 02:01:05;;;;;;;8.80;4.20;;;10.60;91.20;;;;;;5035833;28;20036;-66
2022/10/10 02:03:37;;;;;;;11.10;5.20;;;10.70;91.70;;;;;;5027823;28;20118;-66
2022/10/10 02:06:06;;;;;;;9.05;5.53;;;10.70;92.20;;;;;;5035231;28;20033;-64
2022/10/10 02:08:44;;;;;;;12.25;6.35;;;10.70;91.60;;;;;;5034096;28;20026;-65
2022/10/10 02:11:11;;;;;;;11.95;6.63;;;10.70;92.20;;;;;;5032590;28;20025;-65
2022/10/10 02:13:48;;;;;;;10.13;4.80;;;10.70;92.50;;;;;;5029005;28;20325;-65
2022/10/10 02:16:23;;;;;;;8.32;4.50;;;10.70;91.70;;;;;;5033519;28;20331;-65
2022/10/10 02:18:50;;;;;;;7.90;4.85;;;10.70;91.80;;;;;;5031514;28;20029;-65
2022/10/10 02:21:16;;;;;;;7.68;3.72;;;10.80;92.20;;;;;;5034616;28;20325;-65
2022/10/10 02:23:46;;;;;;;8.80;5.60;;;10.90;91.80;;;;;;5034060;28;20044;-64
2022/10/10 02:26:14;;;;;;;6.63;4.20;;;10.90;93.20;;;;;;5031226;28;20049;-65
2022/10/10 02:28:59;;;;;;;10.13;5.05;;;10.90;93.00;;;;;;5034796;28;20033;-65
2022/10/10 02:31:37;;;;;;;8.32;5.10;;;10.90;93.50;;;;;;5033836;28;20025;-66
2022/10/10 02:34:18;;;;;;;12.30;6.45;;;10.90;93.90;;;;;;5031525;28;20034;-65
2022/10/10 02:36:49;;;;;;;10.07;5.03;;;10.80;93.40;;;;;;5033941;28;20299;-65
2022/10/10 02:39:17;;;;;;;8.75;4.63;;;10.90;93.80;;;;;;5031170;28;20527;-65
2022/10/10 02:41:44;;;;;;;8.00;3.80;;;10.90;92.70;;;;;;5039468;28;20029;-65
2022/10/10 02:44:11;;;;;;;7.85;4.72;;;11.00;92.80;;;;;;5032066;28;20021;-65
2022/10/10 02:46:37;;;;;;;10.43;4.20;;;11.00;93.20;;;;;;5022890;28;20154;-65
2022/10/10 02:49:07;;;;;;;9.75;4.32;;;11.00;92.60;;;;;;5031601;28;20347;-65
2022/10/10 02:51:33;;;;;;;11.25;6.05;;;11.10;93.10;;;;;;5031903;28;20048;-65
2022/10/10 02:53:59;;;;;;;9.45;5.90;;;11.10;94.50;;;;;;5033497;28;20419;-65
2022/10/10 02:56:25;;;;;;;7.85;5.25;;;11.20;95.40;;;;;;5033150;28;20263;-65
2022/10/10 02:58:50;;;;;;;11.55;5.85;;;11.20;95.40;;;;;;5033391;28;20025;-65
2022/10/10 03:01:16;;;;;;;13.15;6.38;;;11.10;95.30;;;;;;5034927;28;20033;-65
2022/10/10 03:03:42;;;;;;;16.58;9.18;;;11.20;95.90;;;;;;5031728;28;20030;-65
2022/10/10 03:06:07;;;;;;;16.67;10.65;;;11.10;95.80;;;;;;5036366;28;20038;-64
2022/10/10 03:08:35;;;;;;;29.95;18.27;;;11.10;95.70;;;;;;5024042;28;21621;-64
2022/10/10 03:11:01;;;;;;;27.63;17.67;;;11.10;94.90;;;;;;5025743;28;20025;-64
2022/10/10 03:13:27;;;;;;;26.52;16.55;;;11.00;95.00;;;;;;5026577;28;20317;-64
2022/10/10 03:15:53;;;;;;;22.52;14.40;;;11.10;95.10;;;;;;5029602;28;20022;-63
2022/10/10 03:18:19;;;;;;;26.50;16.77;;;11.00;94.60;;;;;;5020308;28;20041;-65
2022/10/10 03:20:51;;;;;;;24.90;14.40;;;11.00;94.50;;;;;;5018541;28;20426;-63
2022/10/10 03:23:17;;;;;;;18.98;12.35;;;11.00;94.30;;;;;;5028057;28;20345;-64
2022/10/10 03:25:43;;;;;;;22.00;13.15;;;11.10;94.80;;;;;;5044665;28;20037;-65
2022/10/10 03:28:10;;;;;;;19.17;12.82;;;11.10;95.40;;;;;;5032914;28;20036;-63
2022/10/10 03:30:36;;;;;;;19.33;12.05;;;11.00;95.20;;;;;;5031329;28;20338;-64
2022/10/10 03:33:02;;;;;;;17.95;11.35;;;10.90;94.20;;;;;;5026922;28;20029;-64
2022/10/10 03:35:28;;;;;;;18.83;11.88;;;10.90;94.10;;;;;;5023746;28;20029;-64
2022/10/10 03:37:55;;;;;;;17.63;10.98;;;10.90;93.50;;;;;;5022186;28;20053;-63
2022/10/10 03:40:21;;;;;;;18.65;11.98;;;10.80;93.20;;;;;;5023265;28;20457;-64
2022/10/10 03:42:46;;;;;;;14.65;9.60;;;10.80;93.50;;;;;;5024898;28;20038;-64
2022/10/10 03:45:12;;;;;;;13.95;8.18;;;10.80;93.30;;;;;;5025366;28;20025;-63
2022/10/10 03:47:38;;;;;;;11.90;7.82;;;10.80;93.10;;;;;;5028919;28;20048;-64
2022/10/10 03:50:07;;;;;;;11.93;7.75;;;10.80;93.10;;;;;;5031716;28;20030;-64
2022/10/10 03:52:32;;;;;;;13.32;8.23;;;10.80;93.40;;;;;;5031829;28;20104;-64
2022/10/10 03:54:58;;;;;;;14.27;8.20;;;10.70;92.90;;;;;;5031101;28;20167;-64
2022/10/10 03:57:24;;;;;;;14.35;8.48;;;10.60;92.30;;;;;;5029966;28;20057;-64
2022/10/10 03:59:50;;;;;;;13.57;7.85;;;10.60;92.70;;;;;;5027620;28;20030;-64
2022/10/10 04:02:15;;;;;;;12.32;7.35;;;10.50;92.00;;;;;;5032126;28;20116;-64
2022/10/10 04:04:41;;;;;;;16.02;8.45;;;10.50;91.30;;;;;;5032811;28;20032;-64
2022/10/10 04:07:07;;;;;;;11.30;7.40;;;10.50;90.60;;;;;;5026905;28;20445;-64
2022/10/10 04:09:32;;;;;;;14.38;6.18;;;10.50;89.90;;;;;;5031272;28;20026;-64
2022/10/10 04:11:58;;;;;;;12.23;6.35;;;10.50;88.90;;;;;;5025034;28;20418;-63
2022/10/10 04:14:24;;;;;;;18.90;6.70;;;10.60;88.80;;;;;;5032500;28;20033;-64
2022/10/10 04:16:50;;;;;;;11.82;5.68;;;10.70;89.40;;;;;;5031893;28;20033;-64
2022/10/10 04:19:16;;;;;;;12.38;7.07;;;10.70;89.00;;;;;;5032971;28;20032;-64
2022/10/10 04:21:42;;;;;;;9.77;4.35;;;10.70;89.10;;;;;;5030092;28;20027;-63
2022/10/10 04:24:08;;;;;;;7.50;4.35;;;10.80;88.40;;;;;;5032677;28;20029;-63
2022/10/10 04:26:34;;;;;;;9.40;4.88;;;10.90;88.70;;;;;;5029630;28;20026;-64
2022/10/10 04:29:00;;;;;;;9.63;4.97;;;11.00;89.20;;;;;;5029387;28;20041;-64
2022/10/10 04:31:25;;;;;;;8.90;4.90;;;10.90;90.10;;;;;;5034226;28;20021;-64
2022/10/10 04:33:51;;;;;;;11.63;5.22;;;10.80;89.90;;;;;;5033156;28;20022;-63
2022/10/10 04:36:17;;;;;;;9.95;4.75;;;10.80;89.50;;;;;;5033259;28;20075;-64
2022/10/10 04:38:43;;;;;;;14.23;5.70;;;10.70;88.60;;;;;;5032856;28;20041;-63
2022/10/10 04:41:08;;;;;;;10.23;5.40;;;10.70;88.30;;;;;;5030097;28;20116;-63
2022/10/10 04:43:34;;;;;;;9.50;4.82;;;10.70;87.90;;;;;;5034205;28;20104;-63
2022/10/10 04:46:00;;;;;;;10.45;5.38;;;10.60;87.80;;;;;;5030896;28;20029;-63
2022/10/10 04:48:26;;;;;;;8.95;5.22;;;10.60;87.60;;;;;;5031386;28;20121;-66
2022/10/10 04:50:53;;;;;;;8.38;4.93;;;10.40;87.60;;;;;;5033159;28;20036;-66
2022/10/10 04:53:19;;;;;;;12.43;7.53;;;10.40;86.50;;;;;;5029626;28;20079;-65
2022/10/10 04:55:45;;;;;;;8.07;4.72;;;10.30;85.70;;;;;;5034767;28;20044;-65
2022/10/10 04:58:11;;;;;;;10.23;5.07;;;10.30;85.20;;;;;;5030146;28;20425;-64
2022/10/10 05:00:37;;;;;;;13.25;7.70;;;10.30;84.10;;;;;;5034960;28;20057;-65
2022/10/10 05:03:03;;;;;;;10.90;5.10;;;10.20;84.80;;;;;;5031447;28;20025;-65
2022/10/10 05:05:29;;;;;;;13.13;6.05;;;10.20;82.20;;;;;;5022060;28;20569;-65
2022/10/10 05:07:55;;;;;;;14.88;8.50;;;10.30;82.50;;;;;;5020522;28;20033;-64
2022/10/10 05:10:20;;;;;;;14.57;7.07;;;10.30;84.10;;;;;;5038719;28;20017;-64
2022/10/10 05:12:46;;;;;;;11.65;5.80;;;10.20;83.60;;;;;;5036272;28;20034;-65
2022/10/10 05:15:13;;;;;;;15.40;8.75;;;10.20;82.10;;;;;;5036141;28;20113;-64
2022/10/10 05:17:41;;;;;;;17.27;6.10;;;10.20;82.00;;;;;;5038700;28;20377;-64
2022/10/10 05:20:07;;;;;;;13.25;6.30;;;10.30;79.50;;;;;;5039488;28;20036;-65
2022/10/10 05:22:33;;;;;;;10.98;5.57;;;10.40;79.50;;;;;;5038143;28;20033;-64
2022/10/10 05:24:58;;;;;;;22.25;8.60;;;10.50;77.90;;;;;;5034363;28;20326;-64
2022/10/10 05:27:27;;;;;;;10.93;5.78;;;10.60;78.60;;;;;;5038305;28;20414;-64
2022/10/10 05:29:54;;;;;;;10.43;5.30;;;10.70;78.10;;;;;;5033891;28;20037;-64
2022/10/10 05:32:21;;;;;;;10.63;5.72;;;10.80;78.70;;;;;;5019442;28;20104;-64
2022/10/10 05:34:47;;;;;;;10.57;5.00;;;10.80;79.20;;;;;;5012398;28;20064;-65
2022/10/10 05:37:13;;;;;;;11.57;4.50;;;10.90;79.30;;;;;;5036542;28;20041;-64
2022/10/10 05:39:38;;;;;;;10.13;4.57;;;11.00;79.50;;;;;;5037285;28;20369;-64
2022/10/10 05:42:04;;;;;;;14.95;5.32;;;11.20;80.20;;;;;;5039067;28;20025;-64
2022/10/10 05:44:30;;;;;;;9.23;4.70;;;11.40;81.70;;;;;;5039283;28;20028;-64
2022/10/10 05:46:56;;;;;;;11.30;5.28;;;11.40;84.60;;;;;;5039166;28;20299;-64
2022/10/10 05:49:22;;;;;;;9.52;5.80;;;11.50;86.30;;;;;;5037212;28;20034;-64
2022/10/10 05:51:48;;;;;;;11.00;5.13;;;11.50;87.00;;;;;;5038338;28;20017;-64
2022/10/10 05:54:14;;;;;;;9.27;2.53;;;11.60;87.40;;;;;;5038061;28;20240;-64
2022/10/10 05:56:40;;;;;;;6.97;2.88;;;12.00;86.60;;;;;;5039000;28;20457;-63
2022/10/10 05:59:06;;;;;;;9.13;2.75;;;12.30;88.50;;;;;;5037954;28;20299;-64
2022/10/10 06:01:32;;;;;;;5.25;2.63;;;12.60;91.10;;;;;;5018009;28;20129;-63
2022/10/10 06:03:58;;;;;;;7.32;2.55;;;13.10;95.40;;;;;;5015050;28;20472;-64
2022/10/10 06:06:24;;;;;;;9.27;2.35;;;13.50;97.30;;;;;;5016382;28;20120;-64
2022/10/10 06:08:51;;;;;;;5.63;2.33;;;13.70;98.00;;;;;;5023798;28;20430;-65
2022/10/10 06:11:18;;;;;;;7.28;2.38;;;13.90;98.00;;;;;;5014789;28;20033;-64
2022/10/10 06:13:44;;;;;;;6.40;2.40;;;14.10;98.00;;;;;;5013753;28;20037;-64
2022/10/10 06:16:10;;;;;;;6.60;2.08;;;14.20;98.00;;;;;;5017474;28;20037;-64
2022/10/10 06:18:36;;;;;;;7.07;2.13;;;14.30;98.00;;;;;;5013503;28;20026;-64
2022/10/10 06:21:04;;;;;;;7.28;1.85;;;14.40;98.00;;;;;;5013624;28;20117;-64
2022/10/10 06:23:30;;;;;;;5.57;2.42;;;14.40;98.00;;;;;;5027812;28;20032;-64
2022/10/10 06:25:56;;;;;;;9.10;3.60;;;14.40;98.00;;;;;;5015257;28;20033;-64
2022/10/10 06:28:21;;;;;;;7.45;2.67;;;14.40;98.00;;;;;;5015832;28;20109;-64
2022/10/10 06:30:49;;;;;;;6.90;3.50;;;14.50;98.00;;;;;;5027806;28;20040;-64
2022/10/10 06:33:17;;;;;;;7.10;2.85;;;14.50;98.00;;;;;;5014996;28;20074;-64
2022/10/10 06:35:45;;;;;;;6.38;2.50;;;14.50;98.00;;;;;;5014145;28;20134;-65
2022/10/10 06:38:12;;;;;;;7.78;3.60;;;14.60;98.00;;;;;;5022374;28;20073;-64
2022/10/10 06:40:38;;;;;;;5.05;2.75;;;14.30;98.00;;;;;;5036935;28;20021;-64
2022/10/10 06:43:09;;;;;;;10.38;4.30;;;14.10;98.00;;;;;;5038234;28;20057;-64
2022/10/10 06:45:36;;;;;;;8.45;4.50;;;14.10;98.00;;;;;;5037073;28;20058;-65
2022/10/10 06:48:02;;;;;;;7.85;4.22;;;14.20;98.00;;;;;;5034859;28;20061;-64
2022/10/10 06:50:27;;;;;;;8.32;3.83;;;14.30;98.00;;;;;;5013776;28;20026;-64
2022/10/10 06:52:53;;;;;;;9.50;2.60;;;14.40;98.00;;;;;;5011702;28;20040;-65
2022/10/10 06:55:19;;;;;;;6.90;2.25;;;14.40;98.00;;;;;;5012915;28;20038;-64
2022/10/10 06:57:44;;;;;;;5.03;1.70;;;14.60;98.00;;;;;;5014929;28;20041;-64
2022/10/10 07:00:12;;;;;;;8.00;2.70;;;14.80;98.00;;;;;;5015110;28;20018;-64
2022/10/10 07:02:39;;;;;;;6.22;2.85;;;14.90;98.00;;;;;;5018255;28;20030;-64
2022/10/10 07:05:07;;;;;;;6.70;3.13;;;14.80;98.00;;;;;;5018714;28;20075;-64
2022/10/10 07:07:34;;;;;;;8.35;3.85;;;14.90;98.00;;;;;;5023437;28;20334;-64
2022/10/10 07:09:59;;;;;;;7.03;2.10;;;15.00;98.00;;;;;;5014025;28;20034;-64
2022/10/10 07:12:25;;;;;;;8.27;3.20;;;15.00;98.00;;;;;;5014124;28;20032;-64
2022/10/10 07:14:51;;;;;;;5.88;2.70;;;15.10;98.00;;;;;;5012768;28;20430;-64
2022/10/10 07:17:16;;;;;;;5.97;2.60;;;15.20;98.00;;;;;;5012329;28;20056;-64
2022/10/10 07:19:42;;;;;;;6.22;2.17;;;15.40;98.00;;;;;;5015161;28;20135;-64
2022/10/10 07:22:07;;;;;;;6.32;2.50;;;15.50;98.00;;;;;;5016256;28;20070;-64
2022/10/10 07:24:33;;;;;;;5.97;2.35;;;15.50;98.00;;;;;;5012027;28;20105;-64
2022/10/10 07:26:59;;;;;;;5.80;1.85;;;15.50;98.00;;;;;;5011366;28;21013;-64
2022/10/10 07:29:26;;;;;;;7.05;2.15;;;15.30;98.00;;;;;;5027656;28;20029;-64
2022/10/10 07:31:52;;;;;;;3.97;1.70;;;15.30;98.00;;;;;;5017013;28;21653;-64
2022/10/10 07:34:18;;;;;;;5.07;2.30;;;15.30;98.00;;;;;;5012800;28;20029;-64
2022/10/10 07:36:47;;;;;;;5.55;1.92;;;15.30;98.00;;;;;;5016159;28;20041;-63
2022/10/10 07:39:13;;;;;;;6.82;2.45;;;15.40;98.00;;;;;;5015723;28;20619;-64
2022/10/10 07:41:39;;;;;;;7.35;2.50;;;15.60;98.00;;;;;;5013314;28;20048;-63
2022/10/10 07:44:04;;;;;;;10.45;2.17;;;15.60;98.00;;;;;;5029623;28;20488;-65
2022/10/10 07:46:32;;;;;;;9.32;2.53;;;15.60;98.00;;;;;;5026583;28;20033;-66
2022/10/10 07:48:57;;;;;;;8.40;2.60;;;15.70;98.00;;;;;;5013523;28;20034;-65
2022/10/10 07:51:23;;;;;;;9.27;2.30;;;15.70;97.90;;;;;;5013108;28;20036;-66
2022/10/10 07:53:50;;;;;;;7.97;2.40;;;15.70;97.60;;;;;;5016447;28;21894;-64
2022/10/10 07:56:16;;;;;;;7.78;2.55;;;15.90;97.90;;;;;;5013304;28;20109;-65
2022/10/10 07:58:42;;;;;;;6.50;2.20;;;15.90;98.00;;;;;;5013879;28;21375;-64
2022/10/10 08:01:10;;;;;;;5.55;2.20;;;16.00;97.70;;;;;;5015103;28;20029;-64
2022/10/10 08:03:37;;;;;;;6.55;2.25;;;16.20;96.60;;;;;;5016715;28;20486;-64
2022/10/10 08:06:08;;;;;;;7.50;2.20;;;16.30;97.10;;;;;;5017912;28;20041;-64
2022/10/10 08:08:36;;;;;;;12.43;3.78;;;16.40;96.80;;;;;;5021396;28;20028;-64
2022/10/10 08:11:06;;;;;;;6.03;2.50;;;16.50;96.40;;;;;;5012490;28;20025;-65
2022/10/10 08:13:33;;;;;;;5.82;1.92;;;16.50;96.10;;;;;;5012381;28;20040;-64
2022/10/10 08:15:59;;;;;;;5.93;2.42;;;16.60;96.30;;;;;;5012175;28;20033;-65
2022/10/10 08:18:24;;;;;;;6.47;2.33;;;16.60;96.10;;;;;;5014757;28;20037;-64
2022/10/10 08:21:08;;;;;;;8.35;2.35;;;16.60;95.40;;;;;;5014218;28;20037;-64
2022/10/10 08:23:34;;;;;;;7.38;3.13;;;16.60;95.50;;;;;;5012270;28;20037;-65
2022/10/10 08:26:03;;;;;;;9.50;3.40;;;16.50;95.80;;;;;;5017079;28;20112;-64
2022/10/10 08:28:29;;;;;;;7.47;2.40;;;16.40;96.00;;;;;;5011085;28;20481;-64
2022/10/10 08:30:55;;;;;;;9.75;3.25;;;16.30;95.90;;;;;;5020223;28;20041;-64
2022/10/10 08:33:20;;;;;;;8.73;2.95;;;16.30;96.60;;;;;;5018669;28;20025;-64
2022/10/10 08:35:46;;;;;;;7.55;2.97;;;16.30;96.10;;;;;;5011906;28;20030;-65
2022/10/10 08:38:13;;;;;;;5.97;2.60;;;16.20;96.70;;;;;;5019634;28;20050;-64
2022/10/10 08:40:52;;;;;;;5.13;2.72;;;16.20;96.40;;;;;;5012303;28;20423;-64
2022/10/10 08:43:36;;;;;;;8.75;2.50;;;16.20;96.50;;;;;;5013883;28;20030;-65
2022/10/10 08:46:14;;;;;;;6.38;2.40;;;16.40;96.40;;;;;;5013966;28;20080;-65
2022/10/10 08:48:40;;;;;;;11.07;3.00;;;16.50;96.00;;;;;;5014397;28;20025;-64
2022/10/10 08:51:11;;;;;;;9.98;2.90;;;16.50;95.80;;;;;;5017102;28;20034;-64
2022/10/10 08:53:48;;;;;;;7.75;2.55;;;16.60;95.60;;;;;;5018170;28;20056;-64
2022/10/10 08:56:24;;;;;;;7.07;2.88;;;16.70;95.60;;;;;;5010939;28;20096;-64
2022/10/10 08:58:57;;;;;;;5.95;2.35;;;16.90;94.90;;;;;;5012937;28;20116;-65
2022/10/10 09:01:30;;;;;;;9.23;2.40;;;17.10;94.70;;;;;;5015330;28;20049;-65
2022/10/10 09:03:59;;;;;;;5.43;2.53;;;17.30;93.50;;;;;;5012153;28;20091;-64
2022/10/10 09:06:56;;;;;;;7.50;2.22;;;17.60;92.80;;;;;;5016385;28;20021;-64
2022/10/10 09:09:43;;;;;;;6.90;2.00;;;17.70;93.70;;;;;;5018367;28;20457;-64
2022/10/10 09:12:33;;;;;;;6.22;2.67;;;17.50;94.40;;;;;;5011132;28;20033;-65
2022/10/10 09:15:23;;;;;;;6.15;2.35;;;17.50;94.70;;;;;;5011427;28;20029;-63
2022/10/10 09:18:08;;;;;;;6.55;2.20;;;17.40;95.40;;;;;;5016548;28;20033;-64
2022/10/10 09:20:52;;;;;;;7.45;2.45;;;17.10;96.00;;;;;;5013752;28;20040;-64
2022/10/10 09:23:27;;;;;;;11.02;2.78;;;17.00;96.50;;;;;;5014966;28;20026;-63
2022/10/10 09:26:11;;;;;;;9.20;2.40;;;16.80;95.20;;;;;;5013195;28;20255;-63
2022/10/10 09:28:49;;;;;;;8.25;2.72;;;16.80;95.40;;;;;;5013478;28;20026;-64
2022/10/10 09:31:46;;;;;;;6.47;2.13;;;17.00;95.10;;;;;;5015674;28;20399;-65
2022/10/10 09:34:38;;;;;;;7.13;2.17;;;17.20;94.40;;;;;;5014574;28;20096;-65
2022/10/10 09:37:28;;;;;;;8.45;2.13;;;17.60;93.50;;;;;;5033811;28;20312;-65
2022/10/10 09:40:26;;;;;;;9.77;3.13;;;17.90;92.50;;;;;;5034374;28;20418;-65
2022/10/10 09:42:52;;;;;;;8.20;2.58;;;18.20;91.40;;;;;;5032320;28;20342;-64
2022/10/10 09:45:25;;;;;;;6.75;2.20;;;18.50;89.30;;;;;;5035708;28;20112;-65
2022/10/10 09:47:54;;;;;;;6.17;2.50;;;18.70;90.10;;;;;;5035453;28;20029;-64
2022/10/10 09:50:20;;;;;;;8.82;2.92;;;19.10;88.20;;;;;;5035288;28;20022;-65
2022/10/10 09:52:47;;;;;;;10.43;2.35;;;19.30;88.30;;;;;;5033833;28;20021;-64
2022/10/10 09:55:34;;;;;;;7.68;2.63;;;19.70;86.40;;;;;;5036386;28;20029;-65
2022/10/10 09:58:24;;;;;;;13.50;2.60;;;19.90;85.70;;;;;;5039138;28;20017;-64
2022/10/10 10:00:49;;;;;;;8.90;2.50;;;20.10;82.60;;;;;;5039082;28;20021;-65
2022/10/10 10:03:17;;;;;;;8.60;2.30;;;19.80;83.90;;;;;;5037514;28;20365;-64
2022/10/10 10:06:00;;;;;;;12.52;2.60;;;19.60;86.10;;;;;;5038835;28;20083;-65
2022/10/10 10:08:32;;;;;;;8.45;2.75;;;19.30;84.60;;;;;;5038885;28;20034;-65
2022/10/10 10:10:58;;;;;;;9.02;2.80;;;19.00;86.30;;;;;;5037851;28;20029;-65
2022/10/10 10:13:27;;;;;;;11.10;3.17;;;18.60;88.10;;;;;;5037875;28;20099;-64
2022/10/10 10:16:10;;;;;;;10.23;3.13;;;18.60;88.20;;;;;;5038629;28;20025;-64
2022/10/10 10:18:43;;;;;;;14.65;5.32;;;18.40;89.50;;;;;;5038717;28;20022;-65
2022/10/10 10:21:24;;;;;;;8.63;3.67;;;18.50;90.00;;;;;;5038557;28;20052;-64
2022/10/10 10:23:55;;;;;;;7.25;3.72;;;18.60;88.00;;;;;;5035189;28;20029;-65
2022/10/10 10:26:40;;;;;;;12.35;3.92;;;18.70;89.40;;;;;;5038703;28;20410;-64
2022/10/10 10:29:26;;;;;;;11.82;3.05;;;18.80;87.60;;;;;;5038236;28;20041;-64
2022/10/10 10:32:00;;;;;;;10.88;3.67;;;19.00;85.90;;;;;;5034415;28;20021;-64
2022/10/10 10:34:47;;;;;;;10.60;3.13;;;19.50;87.20;;;;;;5037056;28;20033;-64
2022/10/10 10:37:20;;;;;;;9.52;3.05;;;20.10;85.70;;;;;;5038293;28;20049;-66
2022/10/10 10:39:46;;;;;;;11.18;2.90;;;20.40;83.00;;;;;;5037165;28;20026;-66
2022/10/10 10:42:53;;;;;;;10.68;2.72;;;20.50;82.00;;;;;;5037474;28;20029;-65
2022/10/10 10:45:46;;;;;;;13.20;2.40;;;20.60;81.40;;;;;;5030333;28;20341;-65
2022/10/10 10:48:28;;;;;;;9.68;2.33;;;21.20;79.40;;;;;;5038083;28;20033;-65
2022/10/10 10:51:14;;;;;;;16.00;2.97;;;21.60;77.00;;;;;;5038102;28;20057;-65
2022/10/10 10:54:04;;;;;;;14.98;2.55;;;21.70;76.80;;;;;;5037695;28;20025;-65
2022/10/10 10:56:45;;;;;;;13.32;2.50;;;21.50;76.70;;;;;;5038172;28;20025;-65
2022/10/10 10:59:53;;;;;;;10.65;2.70;;;21.20;76.90;;;;;;5037957;28;20148;-65
2022/10/10 11:02:36;;;;;;;11.65;2.47;;;21.60;77.70;;;;;;4976369;28;20413;-65
2022/10/10 11:05:10;;;;;;;13.65;3.20;;;22.40;73.80;;;;;;5016156;28;20045;-65
2022/10/10 11:07:52;;;;;;;12.32;2.67;;;22.40;72.20;;;;;;5017819;28;20068;-64
2022/10/10 11:10:38;;;;;;;13.30;3.47;;;22.10;73.70;;;;;;5016828;28;20018;-64
2022/10/10 11:13:34;;;;;;;11.82;2.85;;;21.40;74.70;;;;;;5031287;28;20041;-64
2022/10/10 11:16:35;;;;;;;10.88;3.00;;;20.70;76.50;;;;;;5037656;28;20025;-64
2022/10/10 11:19:10;;;;;;;13.52;2.85;;;20.80;76.60;;;;;;5014133;28;20048;-64
2022/10/10 11:22:12;;;;;;;16.02;3.67;;;20.90;76.70;;;;;;5036541;28;20051;-65
2022/10/10 11:24:50;;;;;;;15.30;3.85;;;21.70;75.40;;;;;;5036349;28;20021;-65
2022/10/10 11:27:25;;;;;;;22.08;3.60;;;22.30;73.00;;;;;;5037469;28;20108;-65
2022/10/10 11:29:55;;;;;;;18.33;3.28;;;22.60;71.90;;;;;;5037390;28;20030;-64
2022/10/10 11:32:50;;;;;;;16.60;4.13;;;22.30;72.90;;;;;;5036416;28;20033;-65
2022/10/10 11:35:24;;;;;;;17.23;3.40;;;22.30;72.20;;;;;;5024306;28;20041;-64
2022/10/10 11:38:00;;;;;;;12.02;2.78;;;22.30;70.60;;;;;;5033720;28;20041;-64
2022/10/10 11:40:34;;;;;;;16.63;3.85;;;22.00;73.10;;;;;;5034136;28;20024;-64
2022/10/10 11:43:18;;;;;;;19.73;3.42;;;21.80;73.50;;;;;;5033677;28;20108;-64
2022/10/10 11:45:46;;;;;;;14.68;3.30;;;22.00;71.60;;;;;;5033754;28;20092;-64
2022/10/10 11:48:16;;;;;;;15.90;3.15;;;22.20;72.90;;;;;;5033192;28;20048;-64
2022/10/10 11:50:43;;;;;;;19.42;4.18;;;22.20;71.80;;;;;;5035120;28;20022;-64
2022/10/10 11:53:33;;;;;;;17.20;3.60;;;22.20;69.70;;;;;;5032558;28;20029;-64
2022/10/10 11:56:25;;;;;;;15.48;3.78;;;22.20;70.70;;;;;;5016050;28;20026;-64
2022/10/10 11:58:57;;;;;;;15.88;3.70;;;22.30;69.60;;;;;;5032674;28;20112;-64
2022/10/10 12:01:26;;;;;;;20.73;4.15;;;22.10;69.80;;;;;;5036387;28;20040;-64
2022/10/10 12:03:52;;;;;;;17.67;3.58;;;22.30;70.60;;;;;;5033885;28;20299;-64
2022/10/10 12:06:39;;;;;;;17.95;4.20;;;22.20;69.20;;;;;;5035154;28;20034;-63
2022/10/10 12:09:16;;;;;;;18.17;4.15;;;22.50;70.10;;;;;;5032662;28;20067;-64
2022/10/10 12:11:59;;;;;;;15.95;3.65;;;22.40;71.00;;;;;;5035277;28;20033;-63
2022/10/10 12:14:27;;;;;;;17.77;3.35;;;22.70;70.50;;;;;;5034260;28;20060;-64
2022/10/10 12:16:55;;;;;;;19.25;3.53;;;22.80;67.60;;;;;;5035357;28;20030;-64
2022/10/10 12:19:23;;;;;;;16.35;3.90;;;22.70;68.50;;;;;;5033029;28;20029;-64
2022/10/10 12:21:59;;;;;;;13.73;2.95;;;22.70;68.60;;;;;;5037210;28;20026;-64
2022/10/10 12:24:28;;;;;;;16.17;3.58;;;22.00;69.30;;;;;;5036549;28;20117;-64
2022/10/10 12:26:53;;;;;;;15.43;3.60;;;21.80;70.90;;;;;;5035512;28;20049;-65
2022/10/10 12:29:45;;;;;;;15.35;3.13;;;22.00;72.70;;;;;;5036286;28;20064;-64
2022/10/10 12:32:19;;;;;;;14.52;3.67;;;22.60;71.40;;;;;;5034052;28;20124;-64
2022/10/10 12:34:48;;;;;;;14.50;3.78;;;22.60;70.40;;;;;;5035236;28;20456;-64
2022/10/10 12:37:38;;;;;;;15.77;3.40;;;22.20;70.00;;;;;;5034995;28;20494;-64
2022/10/10 12:40:05;;;;;;;18.20;3.55;;;22.20;71.90;;;;;;5034828;28;20033;-63
2022/10/10 12:42:58;;;;;;;19.45;3.78;;;22.50;72.50;;;;;;5034335;28;20025;-63
2022/10/10 12:45:30;;;;;;;18.83;3.33;;;22.40;71.70;;;;;;5035207;28;20025;-63
2022/10/10 12:48:03;;;;;;;12.60;3.20;;;22.10;72.50;;;;;;5034258;28;20033;-64
2022/10/10 12:50:35;;;;;;;14.07;2.72;;;22.30;72.60;;;;;;5033931;28;20022;-64
2022/10/10 12:53:26;;;;;;;10.73;2.80;;;22.30;71.50;;;;;;5022995;28;20072;-64
2022/10/10 12:55:59;;;;;;;13.45;3.10;;;22.20;72.00;;;;;;5033465;28;20040;-63
2022/10/10 12:58:38;;;;;;;20.73;3.58;;;21.90;72.10;;;;;;5038956;28;20040;-64
2022/10/10 13:01:38;;;;;;;15.38;3.25;;;21.70;71.90;;;;;;5033310;28;20108;-64
2022/10/10 13:04:03;;;;;;;19.65;3.55;;;21.70;72.80;;;;;;5030850;28;20422;-63